createdAt,value
2018-11-11T00:00:38.308Z,16.50
2018-11-11T00:03:12.365Z,16.10
2018-11-11T00:05:46.198Z,15.30
2018-11-11T00:08:20.258Z,15.47
2018-11-11T00:10:54.325Z,14.80
2018-11-11T00:13:28.263Z,14.53
2018-11-11T00:16:04.610Z,14.50
2018-11-11T00:18:38.443Z,14.23
2018-11-11T00:21:12.498Z,14.57
2018-11-11T00:23:46.513Z,14.57
2018-11-11T00:26:20.428Z,15.23
2018-11-11T00:28:54.393Z,14.63
2018-11-11T00:31:28.194Z,13.90
2018-11-11T00:34:02.164Z,14.27
2018-11-11T00:36:36.368Z,14.30
2018-11-11T00:39:11.124Z,13.93
2018-11-11T00:41:45.267Z,14.50
2018-11-11T00:44:19.313Z,14.47
2018-11-11T00:46:53.113Z,14.30
2018-11-11T00:49:27.013Z,13.43
2018-11-11T00:52:00.919Z,15.30
2018-11-11T00:54:34.903Z,14.33
2018-11-11T00:57:09.203Z,14.17
2018-11-11T00:59:43.032Z,14.40
2018-11-11T01:02:17.766Z,13.67
2018-11-11T01:04:51.692Z,13.20
2018-11-11T01:07:25.525Z,14.13
2018-11-11T01:09:59.619Z,13.30
2018-11-11T01:12:33.426Z,14.00
2018-11-11T01:15:08.132Z,13.30
2018-11-11T01:17:42.089Z,13.20
2018-11-11T01:20:17.104Z,13.43
2018-11-11T01:22:50.965Z,13.10
2018-11-11T01:25:24.899Z,13.90
2018-11-11T01:27:58.767Z,12.77
2018-11-11T01:30:32.732Z,12.73
2018-11-11T01:33:06.694Z,13.23
2018-11-11T01:35:40.565Z,12.70
2018-11-11T01:38:14.563Z,12.77
2018-11-11T01:40:48.562Z,12.97
2018-11-11T01:43:22.676Z,12.60
2018-11-11T01:45:56.727Z,12.87
2018-11-11T01:48:30.575Z,12.67
2018-11-11T01:51:04.801Z,12.20
2018-11-11T01:53:38.688Z,11.70
2018-11-11T01:56:12.622Z,12.17
2018-11-11T01:58:47.262Z,11.80
2018-11-11T02:01:21.137Z,11.67
2018-11-11T02:03:55.170Z,11.93
2018-11-11T02:06:29.083Z,11.63
2018-11-11T02:09:03.103Z,10.83
2018-11-11T02:11:37.051Z,11.73
2018-11-11T02:14:10.993Z,11.80
2018-11-11T02:16:44.782Z,11.23
2018-11-11T02:19:18.938Z,11.80
2018-11-11T02:21:52.758Z,10.87
2018-11-11T02:24:26.716Z,11.37
2018-11-11T02:27:00.785Z,10.93
2018-11-11T02:29:34.635Z,10.90
2018-11-11T02:32:08.618Z,10.23
2018-11-11T02:34:42.602Z,11.50
2018-11-11T02:37:16.518Z,11.63
2018-11-11T02:39:50.331Z,11.80
2018-11-11T02:42:24.150Z,12.13
2018-11-11T02:44:58.061Z,13.30
2018-11-11T02:47:31.986Z,12.13
2018-11-11T02:50:06.548Z,11.97
2018-11-11T02:52:41.120Z,12.40
2018-11-11T02:55:15.758Z,12.00
2018-11-11T02:57:49.734Z,12.13
2018-11-11T03:00:23.681Z,12.70
2018-11-11T03:02:57.640Z,11.20
2018-11-11T03:05:31.426Z,11.57
2018-11-11T03:08:05.399Z,11.90
2018-11-11T03:10:39.189Z,11.13
2018-11-11T03:13:13.084Z,11.90
2018-11-11T03:15:46.773Z,11.70
2018-11-11T03:18:20.727Z,12.13
2018-11-11T03:20:54.700Z,12.23
2018-11-11T03:23:28.602Z,12.00
2018-11-11T03:26:02.600Z,12.30
2018-11-11T03:28:36.532Z,12.00
2018-11-11T03:31:10.496Z,12.37
2018-11-11T03:33:44.317Z,12.90
2018-11-11T03:36:18.294Z,13.50
2018-11-11T03:38:52.150Z,13.10
2018-11-11T03:41:26.060Z,12.93
2018-11-11T03:44:00.121Z,14.13
2018-11-11T03:46:34.122Z,13.90
2018-11-11T03:49:08.070Z,14.10
2018-11-11T03:51:42.033Z,13.97
2018-11-11T03:54:15.871Z,14.47
2018-11-11T03:56:49.885Z,15.30
2018-11-11T03:59:23.710Z,14.20
2018-11-11T04:01:57.826Z,14.67
2018-11-11T04:04:31.588Z,14.53
2018-11-11T04:07:05.515Z,13.73
2018-11-11T04:09:39.290Z,14.33
2018-11-11T04:12:13.146Z,14.73
2018-11-11T04:14:47.061Z,14.30
2018-11-11T04:17:21.019Z,14.57
2018-11-11T04:19:54.819Z,14.13
2018-11-11T04:22:28.770Z,14.53
2018-11-11T04:25:02.583Z,15.43
2018-11-11T04:27:36.342Z,14.27
2018-11-11T04:30:10.718Z,14.90
2018-11-11T04:32:44.845Z,14.60
2018-11-11T04:35:18.793Z,15.23
2018-11-11T04:37:52.927Z,14.90
2018-11-11T04:40:26.850Z,14.13
2018-11-11T04:43:00.798Z,14.27
2018-11-11T04:45:34.703Z,15.07
2018-11-11T04:48:08.432Z,14.57
2018-11-11T04:50:42.421Z,15.37
2018-11-11T04:53:16.401Z,13.80
2018-11-11T04:55:50.350Z,14.43
2018-11-11T04:58:24.331Z,14.73
2018-11-11T05:00:58.361Z,14.73
2018-11-11T05:03:32.228Z,15.10
2018-11-11T05:06:06.213Z,15.43
2018-11-11T05:08:40.161Z,14.70
2018-11-11T05:11:14.172Z,15.03
2018-11-11T05:13:48.246Z,14.93
2018-11-11T05:16:22.079Z,15.77
2018-11-11T05:18:56.006Z,15.60
2018-11-11T05:21:29.842Z,15.53
2018-11-11T05:24:04.320Z,16.83
2018-11-11T05:26:38.221Z,16.13
2018-11-11T05:29:11.998Z,16.43
2018-11-11T05:31:45.811Z,17.50
2018-11-11T05:34:19.845Z,17.90
2018-11-11T05:36:53.731Z,17.57
2018-11-11T05:39:27.579Z,17.90
2018-11-11T05:42:01.315Z,18.43
2018-11-11T05:44:35.288Z,17.70
2018-11-11T05:47:09.111Z,18.07
2018-11-11T05:49:43.267Z,18.17
2018-11-11T05:52:17.408Z,17.53
2018-11-11T05:54:51.365Z,17.37
2018-11-11T05:57:25.265Z,16.30
2018-11-11T05:59:59.269Z,16.97
2018-11-11T06:02:33.278Z,16.63
2018-11-11T06:05:08.074Z,16.70
2018-11-11T06:07:41.895Z,16.37
2018-11-11T06:10:16.238Z,17.00
2018-11-11T06:12:50.055Z,17.13
2018-11-11T06:15:23.867Z,17.43
2018-11-11T06:17:57.855Z,17.20
2018-11-11T06:20:31.846Z,19.13
2018-11-11T06:23:05.754Z,19.13
2018-11-11T06:25:39.758Z,20.10
2018-11-11T06:28:13.546Z,20.00
2018-11-11T06:30:47.506Z,21.30
2018-11-11T06:33:21.410Z,22.73
2018-11-11T06:35:55.349Z,23.30
2018-11-11T06:38:29.254Z,24.07
2018-11-11T06:41:03.102Z,24.30
2018-11-11T06:43:37.042Z,25.10
2018-11-11T06:46:10.952Z,25.90
2018-11-11T06:48:44.901Z,27.13
2018-11-11T06:51:18.792Z,27.10
2018-11-11T06:53:52.641Z,25.50
2018-11-11T06:56:26.818Z,25.77
2018-11-11T06:59:00.820Z,25.43
2018-11-11T07:01:34.624Z,26.80
2018-11-11T07:04:08.522Z,26.67
2018-11-11T07:06:42.448Z,25.53
2018-11-11T07:09:16.396Z,25.67
2018-11-11T07:11:50.342Z,26.03
2018-11-11T07:14:24.196Z,25.60
2018-11-11T07:16:58.267Z,26.53
2018-11-11T07:19:32.116Z,26.83
2018-11-11T07:22:06.079Z,25.77
2018-11-11T07:24:40.108Z,24.57
2018-11-11T07:27:14.133Z,23.13
2018-11-11T07:29:48.163Z,23.90
2018-11-11T07:32:21.922Z,22.57
2018-11-11T07:34:55.808Z,23.03
2018-11-11T07:37:29.725Z,22.37
2018-11-11T07:40:03.685Z,22.20
2018-11-11T07:42:37.453Z,19.93
2018-11-11T07:45:11.596Z,20.97
2018-11-11T07:47:45.504Z,21.43
2018-11-11T07:50:19.312Z,19.60
2018-11-11T07:52:53.168Z,19.43
2018-11-11T07:55:27.314Z,18.87
2018-11-11T07:58:01.283Z,18.47
2018-11-11T08:00:35.289Z,18.17
2018-11-11T08:03:09.485Z,18.93
2018-11-11T08:05:43.748Z,16.53
2018-11-11T08:08:17.702Z,16.00
2018-11-11T08:10:57.416Z,14.97
2018-11-11T08:13:31.529Z,14.97
2018-11-11T08:16:05.594Z,13.67
2018-11-11T08:18:40.075Z,13.07
2018-11-11T08:21:14.848Z,12.30
2018-11-11T08:23:48.762Z,11.13
2018-11-11T08:26:22.724Z,10.30
2018-11-11T08:28:56.675Z,9.40
2018-11-11T08:31:31.015Z,9.97
2018-11-11T08:34:05.129Z,9.03
2018-11-11T08:36:39.099Z,7.93
2018-11-11T08:39:14.129Z,7.97
2018-11-11T08:41:48.194Z,7.50
2018-11-11T08:44:22.135Z,7.87
2018-11-11T08:46:56.125Z,7.60
2018-11-11T08:49:29.930Z,7.60
2018-11-11T08:52:04.053Z,8.50
2018-11-11T08:54:40.333Z,9.30
2018-11-11T08:57:15.385Z,9.13
2018-11-11T08:59:49.485Z,9.37
2018-11-11T09:02:23.656Z,9.50
2018-11-11T09:05:05.086Z,9.90
2018-11-11T09:07:39.633Z,10.43
2018-11-11T09:10:14.829Z,11.90
2018-11-11T09:12:49.358Z,11.67
2018-11-11T09:15:25.344Z,12.43
2018-11-11T09:18:00.352Z,12.90
2018-11-11T09:20:34.508Z,12.87
2018-11-11T09:23:09.843Z,13.43
2018-11-11T09:25:44.037Z,14.20
2018-11-11T09:28:18.005Z,15.07
2018-11-11T09:30:52.178Z,14.77
2018-11-11T09:33:26.257Z,16.27
2018-11-11T09:36:00.511Z,17.07
2018-11-11T09:38:34.392Z,16.90
2018-11-11T09:41:09.117Z,18.53
2018-11-11T09:43:44.118Z,19.97
2018-11-11T09:46:18.770Z,21.23
2018-11-11T09:48:53.062Z,20.00
2018-11-11T09:51:27.086Z,22.77
2018-11-11T09:54:01.961Z,22.10
2018-11-11T09:56:36.816Z,22.93
2018-11-11T09:59:11.189Z,22.87
2018-11-11T10:01:45.548Z,24.57
2018-11-11T10:04:25.700Z,26.27
2018-11-11T10:07:11.319Z,25.40
2018-11-11T10:10:55.309Z,25.33
2018-11-11T10:20:35.342Z,25.20
2018-11-11T10:23:13.569Z,26.40
2018-11-11T10:26:21.613Z,27.00
2018-11-11T10:39:02.494Z,28.40
2018-11-11T10:41:41.916Z,29.10
2018-11-11T10:44:26.389Z,30.13
2018-11-11T10:47:03.436Z,29.83
2018-11-11T10:49:45.773Z,31.83
2018-11-11T10:52:19.770Z,31.30
2018-11-11T10:54:53.752Z,30.33
2018-11-11T10:57:27.609Z,33.70
2018-11-11T11:00:01.535Z,33.67
2018-11-11T11:02:56.117Z,33.33
2018-11-11T11:05:30.174Z,34.87
2018-11-11T11:08:04.334Z,34.30
2018-11-11T11:10:38.105Z,36.13
2018-11-11T11:13:12.212Z,36.60
2018-11-11T11:15:45.965Z,35.83
2018-11-11T11:18:19.748Z,36.63
2018-11-11T11:20:53.466Z,37.20
2018-11-11T11:23:27.268Z,34.33
2018-11-11T11:26:01.203Z,35.93
2018-11-11T11:28:35.081Z,35.07
2018-11-11T11:31:08.998Z,33.63
2018-11-11T11:33:43.004Z,34.73
2018-11-11T11:36:17.315Z,35.00
2018-11-11T11:38:51.297Z,33.00
2018-11-11T11:41:25.406Z,31.97
2018-11-11T11:43:59.341Z,32.57
2018-11-11T11:46:33.356Z,31.37
2018-11-11T11:49:07.333Z,31.37
2018-11-11T11:51:41.349Z,30.97
2018-11-11T11:54:15.211Z,30.10
2018-11-11T11:56:49.245Z,32.00
2018-11-11T11:59:23.177Z,32.37
2018-11-11T12:01:57.170Z,31.40
2018-11-11T12:04:31.142Z,32.70
2018-11-11T12:07:05.397Z,32.37
2018-11-11T12:09:39.300Z,32.07
2018-11-11T12:12:13.331Z,31.40
2018-11-11T12:14:47.180Z,30.90
2018-11-11T12:17:21.186Z,32.57
2018-11-11T12:19:55.158Z,31.90
2018-11-11T12:22:29.137Z,32.47
2018-11-11T12:25:03.064Z,32.03
2018-11-11T12:27:37.086Z,31.70
2018-11-11T12:30:11.287Z,31.77
2018-11-11T12:32:45.151Z,31.17
2018-11-11T12:35:18.922Z,31.03
2018-11-11T12:37:52.720Z,31.90
2018-11-11T12:40:26.776Z,31.40
2018-11-11T12:43:00.813Z,34.30
2018-11-11T12:45:34.713Z,33.40
2018-11-11T12:48:08.653Z,34.80
2018-11-11T12:50:42.471Z,35.13
2018-11-11T12:53:16.394Z,32.73
2018-11-11T12:55:50.294Z,31.77
2018-11-11T12:58:24.305Z,30.73
2018-11-11T13:00:58.430Z,29.70
2018-11-11T13:03:32.285Z,28.50
2018-11-11T13:06:06.122Z,27.83
2018-11-11T13:08:39.944Z,29.03
2018-11-11T13:11:13.878Z,27.00
2018-11-11T13:13:47.710Z,25.60
2018-11-11T13:16:21.651Z,24.77
2018-11-11T13:18:55.472Z,21.73
2018-11-11T13:21:29.454Z,20.83
2018-11-11T13:24:03.221Z,17.57
2018-11-11T13:26:37.105Z,16.97
2018-11-11T13:29:11.031Z,15.40
2018-11-11T13:31:45.003Z,15.33
2018-11-11T13:34:18.787Z,15.73
2018-11-11T13:36:52.760Z,15.63
2018-11-11T13:39:26.452Z,15.77
2018-11-11T13:42:00.258Z,15.43
2018-11-11T13:44:34.436Z,14.63
2018-11-11T13:47:08.279Z,15.13
2018-11-11T13:49:42.194Z,15.40
2018-11-11T13:52:16.137Z,15.10
2018-11-11T13:54:49.999Z,14.40
2018-11-11T13:57:23.942Z,14.53
2018-11-11T13:59:57.969Z,14.60
2018-11-11T14:02:31.995Z,16.37
2018-11-11T14:05:06.310Z,15.67
2018-11-11T14:07:40.356Z,17.73
2018-11-11T14:10:14.656Z,17.50
2018-11-11T14:12:48.641Z,18.80
2018-11-11T14:15:23.952Z,17.40
2018-11-11T14:17:57.732Z,16.83
2018-11-11T14:20:31.710Z,16.87
2018-11-11T14:23:05.872Z,16.03
2018-11-11T14:25:39.775Z,14.53
2018-11-11T14:28:13.557Z,13.70
2018-11-11T14:30:47.506Z,13.33
2018-11-11T14:33:21.336Z,13.77
2018-11-11T14:35:55.328Z,14.27
2018-11-11T14:38:29.291Z,12.83
2018-11-11T14:41:03.346Z,13.27
2018-11-11T14:43:37.196Z,13.53
2018-11-11T14:46:11.107Z,13.73
2018-11-11T14:48:44.866Z,13.60
2018-11-11T14:51:19.068Z,13.20
2018-11-11T14:53:52.846Z,13.23
2018-11-11T14:56:26.816Z,13.40
2018-11-11T14:59:01.184Z,13.33
2018-11-11T15:01:35.187Z,13.60
2018-11-11T15:04:09.182Z,12.67
2018-11-11T15:06:43.220Z,12.57
2018-11-11T15:09:17.029Z,11.80
2018-11-11T15:11:51.642Z,12.90
2018-11-11T15:14:25.665Z,11.83
2018-11-11T15:16:59.518Z,12.53
2018-11-11T15:19:33.565Z,12.50
2018-11-11T15:22:07.426Z,12.63
2018-11-11T15:24:41.227Z,11.43
2018-11-11T15:27:15.031Z,12.90
2018-11-11T15:29:48.860Z,12.43
2018-11-11T15:32:22.742Z,12.37
2018-11-11T15:34:56.716Z,11.73
2018-11-11T15:37:30.348Z,11.70
2018-11-11T15:40:05.412Z,12.00
2018-11-11T15:42:39.498Z,12.43
2018-11-11T15:45:15.066Z,13.27
2018-11-11T15:47:48.808Z,13.63
2018-11-11T15:50:24.145Z,13.70
2018-11-11T15:53:00.065Z,12.83
2018-11-11T15:55:35.314Z,13.40
2018-11-11T15:58:09.337Z,12.67
2018-11-11T16:00:43.765Z,13.10
2018-11-11T16:03:17.582Z,12.23
2018-11-11T16:05:51.629Z,13.53
2018-11-11T16:08:25.681Z,15.07
2018-11-11T16:10:59.485Z,13.20
2018-11-11T16:13:33.502Z,13.23
2018-11-11T16:16:07.731Z,13.47
2018-11-11T16:18:41.811Z,12.80
2018-11-11T16:21:15.605Z,13.47
2018-11-11T16:23:49.405Z,13.40
2018-11-11T16:26:23.301Z,12.97
2018-11-11T16:28:57.368Z,12.07
2018-11-11T16:31:31.315Z,11.83
2018-11-11T16:34:06.073Z,11.60
2018-11-11T16:36:39.980Z,11.77
2018-11-11T16:39:13.883Z,11.93
2018-11-11T16:41:47.918Z,11.50
2018-11-11T16:44:21.947Z,10.73
2018-11-11T16:46:55.953Z,10.63
2018-11-11T16:49:29.851Z,11.00
2018-11-11T16:52:03.816Z,10.67
2018-11-11T16:54:37.714Z,11.30
2018-11-11T16:57:11.569Z,11.77
2018-11-11T16:59:45.454Z,12.23
2018-11-11T17:02:19.368Z,10.07
2018-11-11T17:07:32.005Z,10.80
2018-11-11T17:10:07.100Z,10.97
2018-11-11T17:12:41.701Z,11.03
2018-11-11T17:15:17.099Z,11.20
2018-11-11T17:17:51.150Z,11.63
2018-11-11T17:20:25.402Z,10.83
2018-11-11T17:23:00.847Z,11.17
2018-11-11T17:25:34.771Z,12.00
2018-11-11T17:28:08.687Z,10.00
2018-11-11T17:30:42.794Z,11.90
2018-11-11T17:33:16.644Z,11.50
2018-11-11T17:35:50.560Z,12.80
2018-11-11T17:38:30.907Z,12.03
2018-11-11T17:41:04.815Z,12.37
2018-11-11T17:43:38.815Z,12.17
2018-11-11T17:46:12.896Z,13.47
2018-11-11T17:48:46.777Z,13.70
2018-11-11T17:51:20.636Z,13.37
2018-11-11T17:53:54.616Z,12.67
2018-11-11T17:56:28.470Z,14.20
2018-11-11T17:59:02.429Z,13.90
2018-11-11T18:01:36.456Z,13.10
2018-11-11T18:04:10.432Z,15.00
2018-11-11T18:06:44.492Z,13.73
2018-11-11T18:09:18.463Z,14.90
2018-11-11T18:11:52.514Z,14.73
2018-11-11T18:14:26.645Z,14.73
2018-11-11T18:17:00.753Z,14.83
2018-11-11T18:19:34.809Z,15.73
2018-11-11T18:22:08.910Z,16.20
2018-11-11T18:24:42.822Z,15.70
2018-11-11T18:27:16.951Z,17.43
2018-11-11T18:29:50.929Z,16.60
2018-11-11T18:32:24.862Z,15.80
2018-11-11T18:34:58.800Z,15.40
2018-11-11T18:37:32.731Z,15.50
2018-11-11T18:40:07.618Z,15.00
2018-11-11T18:42:41.370Z,15.70
2018-11-11T18:45:16.715Z,15.33
2018-11-11T18:47:51.000Z,14.90
2018-11-11T18:50:31.420Z,14.37
2018-11-11T18:53:05.296Z,14.20
2018-11-11T18:55:39.176Z,14.10
2018-11-11T18:58:13.020Z,14.20
2018-11-11T19:00:46.980Z,14.20
2018-11-11T19:03:20.854Z,14.20
2018-11-11T19:05:55.041Z,13.40
2018-11-11T19:08:28.992Z,14.50
2018-11-11T19:11:04.006Z,15.37
2018-11-11T19:13:37.841Z,18.93
2018-11-11T19:16:11.741Z,15.60
2018-11-11T19:18:45.915Z,15.83
2018-11-11T19:21:19.698Z,15.73
2018-11-11T19:23:53.832Z,15.93
2018-11-11T19:26:27.688Z,16.20
2018-11-11T19:29:01.562Z,14.97
2018-11-11T19:31:35.771Z,15.50
2018-11-11T19:34:09.632Z,16.53
2018-11-11T19:36:43.567Z,15.70
2018-11-11T19:39:17.659Z,15.13
2018-11-11T19:41:51.791Z,13.40
2018-11-11T19:44:25.516Z,15.10
2018-11-11T19:46:59.708Z,14.63
2018-11-11T19:49:33.585Z,14.53
2018-11-11T19:52:07.758Z,14.43
2018-11-11T19:54:41.783Z,14.17
2018-11-11T19:57:15.891Z,12.53
2018-11-11T19:59:49.772Z,16.50
2018-11-11T20:02:23.487Z,13.37
2018-11-11T20:04:57.300Z,12.83
2018-11-11T20:07:32.260Z,14.33
2018-11-11T20:10:07.591Z,12.47
2018-11-11T20:12:41.614Z,13.83
2018-11-11T20:15:16.798Z,12.97
2018-11-11T20:17:51.014Z,12.77
2018-11-11T20:20:31.377Z,14.03
2018-11-11T20:23:05.461Z,13.23
2018-11-11T20:25:39.276Z,13.80
2018-11-11T20:28:13.373Z,13.83
2018-11-11T20:30:47.229Z,13.97
2018-11-11T20:33:21.212Z,14.70
2018-11-11T20:35:55.342Z,14.37
2018-11-11T20:38:29.578Z,14.13
2018-11-11T20:41:03.725Z,14.80
2018-11-11T20:43:37.653Z,16.07
2018-11-11T20:46:11.700Z,14.87
2018-11-11T20:48:45.598Z,15.57
2018-11-11T20:51:19.943Z,15.73
2018-11-11T20:53:53.818Z,13.87
2018-11-11T20:56:27.741Z,14.67
2018-11-11T20:59:04.194Z,14.63
2018-11-11T21:01:38.270Z,14.00
2018-11-11T21:04:12.036Z,13.07
2018-11-11T21:06:45.926Z,13.73
2018-11-11T21:09:20.042Z,12.73
2018-11-11T21:11:53.813Z,13.07
2018-11-11T21:14:27.667Z,11.60
2018-11-11T21:17:01.705Z,11.80
2018-11-11T21:19:35.786Z,11.17
2018-11-11T21:22:12.162Z,11.47
2018-11-11T21:24:47.024Z,9.00
2018-11-11T21:27:20.969Z,9.10
2018-11-11T21:29:54.964Z,9.33
2018-11-11T21:32:28.928Z,8.80
2018-11-11T21:35:02.803Z,8.33
2018-11-11T21:37:36.799Z,8.07
2018-11-11T21:40:12.394Z,7.20
2018-11-11T21:42:47.293Z,7.10
2018-11-11T21:45:22.541Z,7.17
2018-11-11T21:47:56.346Z,6.67
2018-11-11T21:50:30.436Z,6.30
2018-11-11T21:53:09.869Z,6.13
2018-11-11T21:55:43.648Z,5.80
2018-11-11T21:58:17.714Z,6.17
2018-11-11T22:00:51.900Z,5.63
2018-11-11T22:03:26.224Z,5.87
2018-11-11T22:06:00.082Z,5.10
2018-11-11T22:08:34.341Z,5.20
2018-11-11T22:11:08.430Z,4.90
2018-11-11T22:13:42.391Z,5.17
2018-11-11T22:16:16.340Z,5.67
2018-11-11T22:18:50.250Z,5.40
2018-11-11T22:21:24.248Z,5.83
2018-11-11T22:23:58.218Z,5.80
2018-11-11T22:26:32.015Z,5.73
2018-11-11T22:29:06.091Z,6.30
2018-11-11T22:31:40.004Z,6.73
2018-11-11T22:34:13.972Z,6.20
2018-11-11T22:36:47.896Z,6.67
2018-11-11T22:39:21.813Z,6.10
2018-11-11T22:41:55.727Z,6.37
2018-11-11T22:44:29.651Z,7.10
2018-11-11T22:47:03.613Z,7.33
2018-11-11T22:49:37.599Z,6.73
2018-11-11T22:52:11.774Z,7.43
2018-11-11T22:54:45.618Z,7.00
2018-11-11T22:57:19.525Z,7.10
2018-11-11T22:59:53.439Z,7.67
2018-11-11T23:02:27.143Z,6.93
2018-11-11T23:05:01.052Z,7.10
2018-11-11T23:07:34.989Z,6.73
2018-11-11T23:10:09.368Z,6.50
2018-11-11T23:12:43.360Z,6.50
2018-11-11T23:15:19.062Z,6.17
2018-11-11T23:17:52.955Z,7.50
2018-11-11T23:20:27.004Z,6.40
2018-11-11T23:23:00.951Z,5.77
2018-11-11T23:25:34.876Z,5.07
2018-11-11T23:28:08.881Z,4.93
2018-11-11T23:30:42.839Z,5.43
2018-11-11T23:33:17.025Z,5.03
2018-11-11T23:35:51.066Z,4.77
2018-11-11T23:38:25.063Z,4.43
2018-11-11T23:40:58.913Z,4.63
2018-11-11T23:43:32.776Z,4.97
2018-11-11T23:46:06.799Z,4.30
2018-11-11T23:48:40.831Z,4.90
2018-11-11T23:51:14.721Z,4.43
2018-11-11T23:53:48.853Z,5.20
2018-11-11T23:56:22.821Z,5.40
2018-11-11T23:58:56.684Z,5.87
